createdAt,value
2018-02-02T00:00:12.954Z,13.60
2018-02-02T00:01:12.957Z,13.60
2018-02-02T00:02:13.921Z,14.40
2018-02-02T00:03:12.961Z,13.70
2018-02-02T00:04:12.950Z,14.20
2018-02-02T00:05:12.956Z,13.30
2018-02-02T00:06:12.945Z,14.60
2018-02-02T00:07:12.941Z,14.60
2018-02-02T00:08:12.964Z,15.20
2018-02-02T00:09:12.961Z,15.10
2018-02-02T00:10:12.937Z,15.00
2018-02-02T00:11:12.944Z,15.20
2018-02-02T00:12:12.933Z,15.10
2018-02-02T00:13:12.925Z,15.00
2018-02-02T00:14:12.918Z,15.40
2018-02-02T00:15:12.926Z,16.80
2018-02-02T00:16:12.996Z,16.60
2018-02-02T00:17:12.913Z,16.30
2018-02-02T00:18:12.922Z,17.10
2018-02-02T00:19:12.918Z,17.40
2018-02-02T00:20:12.912Z,18.30
2018-02-02T00:21:12.917Z,18.10
2018-02-02T00:22:12.912Z,18.00
2018-02-02T00:23:12.915Z,17.90
2018-02-02T00:24:12.901Z,16.70
2018-02-02T00:25:12.906Z,17.60
2018-02-02T00:26:13.422Z,17.80
2018-02-02T00:27:12.905Z,17.30
2018-02-02T00:28:12.903Z,18.10
2018-02-02T00:29:13.422Z,17.60
2018-02-02T00:30:12.900Z,16.70
2018-02-02T00:31:12.904Z,18.60
2018-02-02T00:32:12.900Z,18.10
2018-02-02T00:33:12.882Z,19.60
2018-02-02T00:34:12.890Z,19.50
2018-02-02T00:35:12.887Z,19.80
2018-02-02T00:36:12.884Z,19.40
2018-02-02T00:37:12.886Z,19.10
2018-02-02T00:38:12.930Z,18.70
2018-02-02T00:39:12.900Z,18.90
2018-02-02T00:40:12.879Z,19.20
2018-02-02T00:41:12.881Z,19.00
2018-02-02T00:42:12.872Z,19.50
2018-02-02T00:43:12.876Z,19.00
2018-02-02T00:44:12.872Z,19.10
2018-02-02T00:45:12.858Z,19.10
2018-02-02T00:46:12.872Z,18.60
2018-02-02T00:47:12.866Z,18.90
2018-02-02T00:48:12.870Z,19.50
2018-02-02T00:49:12.864Z,19.40
2018-02-02T00:50:12.859Z,20.00
2018-02-02T00:51:12.848Z,20.20
2018-02-02T00:52:12.852Z,19.80
2018-02-02T00:53:12.855Z,21.20
2018-02-02T00:54:12.843Z,21.40
2018-02-02T00:55:12.851Z,21.00
2018-02-02T00:56:12.848Z,19.70
2018-02-02T00:57:12.849Z,20.60
2018-02-02T00:58:12.836Z,20.70
2018-02-02T00:59:12.846Z,20.20
2018-02-02T01:00:13.426Z,20.90
2018-02-02T01:01:12.838Z,20.30
2018-02-02T01:02:12.832Z,21.70
2018-02-02T01:03:12.834Z,21.70
2018-02-02T01:04:12.828Z,22.10
2018-02-02T01:05:12.838Z,21.00
2018-02-02T01:06:12.824Z,21.50
2018-02-02T01:07:12.830Z,21.80
2018-02-02T01:08:12.826Z,21.30
2018-02-02T01:09:12.829Z,21.70
2018-02-02T01:10:12.833Z,22.60
2018-02-02T01:11:12.822Z,22.00
2018-02-02T01:12:12.817Z,22.40
2018-02-02T01:13:12.827Z,21.90
2018-02-02T01:14:12.797Z,22.70
2018-02-02T01:15:12.811Z,23.60
2018-02-02T01:16:12.817Z,22.50
2018-02-02T01:17:12.806Z,23.30
2018-02-02T01:18:12.802Z,21.90
2018-02-02T01:19:12.802Z,22.40
2018-02-02T01:20:12.793Z,23.10
2018-02-02T01:21:12.797Z,22.30
2018-02-02T01:22:12.792Z,21.70
2018-02-02T01:23:12.800Z,22.20
2018-02-02T01:24:12.799Z,21.90
2018-02-02T01:25:12.785Z,21.10
2018-02-02T01:26:12.802Z,21.70
2018-02-02T01:27:12.784Z,21.50
2018-02-02T01:28:12.781Z,21.40
2018-02-02T01:29:12.793Z,21.10
2018-02-02T01:30:12.775Z,22.10
2018-02-02T01:31:12.792Z,21.50
2018-02-02T01:32:12.779Z,21.60
2018-02-02T01:33:12.771Z,22.00
2018-02-02T01:34:12.770Z,21.40
2018-02-02T01:35:12.778Z,21.20
2018-02-02T01:36:12.775Z,21.20
2018-02-02T01:37:12.756Z,20.70
2018-02-02T01:38:12.760Z,21.70
2018-02-02T01:39:12.761Z,21.50
2018-02-02T01:40:12.761Z,21.50
2018-02-02T01:41:12.758Z,21.60
2018-02-02T01:42:12.753Z,21.70
2018-02-02T01:43:12.758Z,21.30
2018-02-02T01:44:13.456Z,20.70
2018-02-02T01:45:12.740Z,21.10
2018-02-02T01:46:12.764Z,21.60
2018-02-02T01:47:12.746Z,20.90
2018-02-02T01:48:12.748Z,19.70
2018-02-02T01:49:12.744Z,19.30
2018-02-02T01:50:12.741Z,21.00
2018-02-02T01:51:12.743Z,20.40
2018-02-02T01:52:12.731Z,21.10
2018-02-02T01:53:12.721Z,19.00
2018-02-02T01:54:12.737Z,19.10
2018-02-02T01:55:12.736Z,20.10
2018-02-02T01:56:12.727Z,20.20
2018-02-02T01:57:12.856Z,21.00
2018-02-02T01:58:12.720Z,20.30
2018-02-02T01:59:12.721Z,19.50
2018-02-02T02:00:12.738Z,19.60
2018-02-02T02:01:12.715Z,20.20
2018-02-02T02:02:12.722Z,20.10
2018-02-02T02:03:12.737Z,19.10
2018-02-02T02:04:12.712Z,18.90
2018-02-02T02:05:12.717Z,18.80
2018-02-02T02:06:12.715Z,19.90
2018-02-02T02:07:12.701Z,19.30
2018-02-02T02:08:12.708Z,18.60
2018-02-02T02:09:12.705Z,18.50
2018-02-02T02:10:13.438Z,19.40
2018-02-02T02:11:12.699Z,19.10
2018-02-02T02:12:12.701Z,19.60
2018-02-02T02:13:12.690Z,19.30
2018-02-02T02:14:12.696Z,19.10
2018-02-02T02:15:12.682Z,19.90
2018-02-02T02:16:12.688Z,19.50
2018-02-02T02:17:12.693Z,18.70
2018-02-02T02:18:12.684Z,20.80
2018-02-02T02:19:13.438Z,19.50
2018-02-02T02:20:12.681Z,19.30
2018-02-02T02:21:12.675Z,19.30
2018-02-02T02:22:12.675Z,18.50
2018-02-02T02:23:13.439Z,19.20
2018-02-02T02:24:12.675Z,19.70
2018-02-02T02:25:12.670Z,19.60
2018-02-02T02:26:12.669Z,19.20
2018-02-02T02:27:12.673Z,19.50
2018-02-02T02:28:12.666Z,19.40
2018-02-02T02:29:12.663Z,19.80
2018-02-02T02:30:12.684Z,19.90
2018-02-02T02:31:12.711Z,19.80
2018-02-02T02:32:12.664Z,19.20
2018-02-02T02:33:12.659Z,18.90
2018-02-02T02:34:12.651Z,20.10
2018-02-02T02:35:12.652Z,18.90
2018-02-02T02:36:12.647Z,18.60
2018-02-02T02:37:12.649Z,19.70
2018-02-02T02:38:12.654Z,18.60
2018-02-02T02:39:12.647Z,18.30
2018-02-02T02:40:12.639Z,18.90
2018-02-02T02:41:12.661Z,19.30
2018-02-02T02:42:13.447Z,19.70
2018-02-02T02:43:12.639Z,19.60
2018-02-02T02:44:12.665Z,20.80
2018-02-02T02:45:12.638Z,19.80
2018-02-02T02:46:12.621Z,20.60
2018-02-02T02:47:12.638Z,19.40
2018-02-02T02:48:12.625Z,20.00
2018-02-02T02:49:12.634Z,20.00
2018-02-02T02:50:12.618Z,20.90
2018-02-02T02:51:12.623Z,19.90
2018-02-02T02:52:12.644Z,20.40
2018-02-02T02:53:12.628Z,21.30
2018-02-02T02:54:12.616Z,21.20
2018-02-02T02:55:12.611Z,20.70
2018-02-02T02:56:12.598Z,21.80
2018-02-02T02:57:12.640Z,20.80
2018-02-02T02:58:12.603Z,21.60
2018-02-02T02:59:12.597Z,22.30
2018-02-02T03:00:12.607Z,22.30
2018-02-02T03:01:12.597Z,21.90
2018-02-02T03:02:12.597Z,23.00
2018-02-02T03:03:12.592Z,24.30
2018-02-02T03:04:12.592Z,23.70
2018-02-02T03:05:12.590Z,23.00
2018-02-02T03:06:12.590Z,23.90
2018-02-02T03:07:13.444Z,23.60
2018-02-02T03:08:12.588Z,22.80
2018-02-02T03:09:12.583Z,22.60
2018-02-02T03:10:12.593Z,23.30
2018-02-02T03:11:12.577Z,23.70
2018-02-02T03:12:12.577Z,24.30
2018-02-02T03:13:12.571Z,24.70
2018-02-02T03:14:12.572Z,23.50
2018-02-02T03:15:12.568Z,23.70
2018-02-02T03:16:12.553Z,24.30
2018-02-02T03:17:12.569Z,23.80
2018-02-02T03:18:12.588Z,23.10
2018-02-02T03:19:12.556Z,24.00
2018-02-02T03:20:12.560Z,24.60
2018-02-02T03:21:12.547Z,24.40
2018-02-02T03:22:12.550Z,24.60
2018-02-02T03:23:12.552Z,25.80
2018-02-02T03:24:12.545Z,25.20
2018-02-02T03:25:12.545Z,24.50
2018-02-02T03:26:12.544Z,25.80
2018-02-02T03:27:12.539Z,26.90
2018-02-02T03:28:12.528Z,25.10
2018-02-02T03:29:12.540Z,26.00
2018-02-02T03:30:12.531Z,26.20
2018-02-02T03:31:12.527Z,25.60
2018-02-02T03:32:12.529Z,25.50
2018-02-02T03:33:12.528Z,25.60
2018-02-02T03:34:12.529Z,26.00
2018-02-02T03:35:12.529Z,25.80
2018-02-02T03:36:12.517Z,26.50
2018-02-02T03:37:12.518Z,25.60
2018-02-02T03:38:12.515Z,26.10
2018-02-02T03:39:12.513Z,25.20
2018-02-02T03:40:12.513Z,25.30
2018-02-02T03:41:12.508Z,25.20
2018-02-02T03:42:12.494Z,27.30
2018-02-02T03:43:12.501Z,27.60
2018-02-02T03:44:12.569Z,25.00
2018-02-02T03:45:12.497Z,26.70
2018-02-02T03:46:12.512Z,26.60
2018-02-02T03:47:12.490Z,28.10
2018-02-02T03:48:12.487Z,26.70
2018-02-02T03:49:12.548Z,26.90
2018-02-02T03:50:12.487Z,27.00
2018-02-02T03:51:12.484Z,26.80
2018-02-02T03:52:12.522Z,27.70
2018-02-02T03:53:12.471Z,26.60
2018-02-02T03:54:12.471Z,26.40
2018-02-02T03:55:12.470Z,27.10
2018-02-02T03:56:12.464Z,26.50
2018-02-02T03:57:12.468Z,26.90
2018-02-02T03:58:12.470Z,26.90
2018-02-02T03:59:12.473Z,26.70
2018-02-02T04:00:12.471Z,27.20
2018-02-02T04:01:12.463Z,28.10
2018-02-02T04:02:12.462Z,27.70
2018-02-02T04:03:12.458Z,26.60
2018-02-02T04:04:12.452Z,26.50
2018-02-02T04:05:12.458Z,26.90
2018-02-02T04:06:12.446Z,27.10
2018-02-02T04:07:12.465Z,28.30
2018-02-02T04:08:12.438Z,28.30
2018-02-02T04:09:12.438Z,28.70
2018-02-02T04:10:12.445Z,28.10
2018-02-02T04:11:12.444Z,27.40
2018-02-02T04:12:12.438Z,28.10
2018-02-02T04:13:12.433Z,28.30
2018-02-02T04:14:12.433Z,27.20
2018-02-02T04:15:12.435Z,27.80
2018-02-02T04:16:12.422Z,27.40
2018-02-02T04:17:12.410Z,28.40
2018-02-02T04:18:12.508Z,28.80
2018-02-02T04:19:12.418Z,29.00
2018-02-02T04:20:12.422Z,28.00
2018-02-02T04:21:12.412Z,29.00
2018-02-02T04:22:12.408Z,27.70
2018-02-02T04:23:12.409Z,28.70
2018-02-02T04:24:12.404Z,30.20
2018-02-02T04:25:12.401Z,29.00
2018-02-02T04:26:12.400Z,30.10
2018-02-02T04:27:12.404Z,29.60
2018-02-02T04:28:12.395Z,28.90
2018-02-02T04:29:12.397Z,30.10
2018-02-02T04:30:12.388Z,29.20
2018-02-02T04:31:12.390Z,30.40
2018-02-02T04:32:12.958Z,29.70
2018-02-02T04:33:12.382Z,30.20
2018-02-02T04:34:12.380Z,29.90
2018-02-02T04:35:12.377Z,30.20
2018-02-02T04:36:12.391Z,30.00
2018-02-02T04:37:12.375Z,31.00
2018-02-02T04:38:12.375Z,29.70
2018-02-02T04:39:12.458Z,29.90
2018-02-02T04:40:12.362Z,30.00
2018-02-02T04:41:12.411Z,32.50
2018-02-02T04:42:12.961Z,32.10
2018-02-02T04:43:12.434Z,30.40
2018-02-02T04:44:12.484Z,30.50
2018-02-02T04:45:12.396Z,31.20
2018-02-02T04:46:12.633Z,30.00
2018-02-02T04:47:12.573Z,30.00
2018-02-02T04:48:12.349Z,29.80
2018-02-02T04:49:12.402Z,29.50
2018-02-02T04:50:12.343Z,31.40
2018-02-02T04:51:12.397Z,30.00
2018-02-02T04:52:12.336Z,29.10
2018-02-02T04:53:12.342Z,31.10
2018-02-02T04:54:12.337Z,28.40
2018-02-02T04:55:12.753Z,29.50
2018-02-02T04:56:12.331Z,30.40
2018-02-02T04:57:14.066Z,29.80
2018-02-02T04:58:12.342Z,30.20
2018-02-02T04:59:12.322Z,28.60
2018-02-02T05:00:12.523Z,29.00
2018-02-02T05:01:12.326Z,28.30
2018-02-02T05:02:13.003Z,28.20
2018-02-02T05:03:12.310Z,30.20
2018-02-02T05:04:12.331Z,28.30
2018-02-02T05:05:12.306Z,29.60
2018-02-02T05:06:12.306Z,28.50
2018-02-02T05:07:12.310Z,31.00
2018-02-02T05:08:12.309Z,30.30
2018-02-02T05:09:12.302Z,29.90
2018-02-02T05:10:12.301Z,29.60
2018-02-02T05:11:12.300Z,29.50
2018-02-02T05:12:12.292Z,31.00
2018-02-02T05:13:12.291Z,31.20
2018-02-02T05:14:12.293Z,28.70
2018-02-02T05:15:12.285Z,29.30
2018-02-02T05:16:12.281Z,28.50
2018-02-02T05:17:12.275Z,30.00
2018-02-02T05:18:12.336Z,28.10
2018-02-02T05:19:12.281Z,28.00
2018-02-02T05:20:12.270Z,29.50
2018-02-02T05:21:12.272Z,27.50
2018-02-02T05:22:12.284Z,28.70
2018-02-02T05:23:12.274Z,27.90
2018-02-02T05:24:12.263Z,29.50
2018-02-02T05:25:12.257Z,29.20
2018-02-02T05:26:12.254Z,28.20
2018-02-02T05:27:12.257Z,29.20
2018-02-02T05:28:12.257Z,28.90
2018-02-02T05:29:12.614Z,28.60
2018-02-02T05:30:12.249Z,28.10
2018-02-02T05:31:12.257Z,28.10
2018-02-02T05:32:13.466Z,26.10
2018-02-02T05:33:12.245Z,27.30
2018-02-02T05:34:12.239Z,27.90
2018-02-02T05:35:12.265Z,26.60
2018-02-02T05:36:12.238Z,26.80
2018-02-02T05:37:12.237Z,27.00
2018-02-02T05:38:12.532Z,27.20
2018-02-02T05:39:12.231Z,26.20
2018-02-02T05:40:12.222Z,25.40
2018-02-02T05:41:12.278Z,26.90
2018-02-02T05:42:12.234Z,25.60
2018-02-02T05:43:12.225Z,26.50
2018-02-02T05:44:12.217Z,26.30
2018-02-02T05:45:12.412Z,25.70
2018-02-02T05:46:12.206Z,24.80
2018-02-02T05:47:12.212Z,25.00
2018-02-02T05:48:12.213Z,25.80
2018-02-02T05:49:12.382Z,25.10
2018-02-02T05:50:12.210Z,25.80
2018-02-02T05:51:12.211Z,25.30
2018-02-02T05:52:12.206Z,26.60
2018-02-02T05:53:12.207Z,26.90
2018-02-02T05:54:12.211Z,27.30
2018-02-02T05:55:12.834Z,26.90
2018-02-02T05:56:12.188Z,26.20
2018-02-02T05:57:12.707Z,26.70
2018-02-02T05:58:12.187Z,26.90
2018-02-02T05:59:12.198Z,26.20
2018-02-02T06:00:12.192Z,26.20
2018-02-02T06:01:12.194Z,26.50
2018-02-02T06:02:12.178Z,27.20
2018-02-02T06:03:12.367Z,26.50
2018-02-02T06:04:12.176Z,26.90
2018-02-02T06:05:12.168Z,26.70
2018-02-02T06:06:12.175Z,28.20
2018-02-02T06:07:12.168Z,27.30
2018-02-02T06:08:12.169Z,26.90
2018-02-02T06:09:12.166Z,27.70
2018-02-02T06:10:12.162Z,26.10
2018-02-02T06:11:12.609Z,26.10
2018-02-02T06:12:12.187Z,25.60
2018-02-02T06:13:12.307Z,25.10
2018-02-02T06:14:12.147Z,26.60
2018-02-02T06:15:12.154Z,28.10
2018-02-02T06:16:12.170Z,28.00
2018-02-02T06:17:12.203Z,27.70
2018-02-02T06:18:12.160Z,27.00
2018-02-02T06:19:12.133Z,27.00
2018-02-02T06:20:12.138Z,27.70
2018-02-02T06:21:12.122Z,27.20
2018-02-02T06:22:12.130Z,26.90
2018-02-02T06:23:12.140Z,27.40
2018-02-02T06:24:12.156Z,27.40
2018-02-02T06:25:12.171Z,27.70
2018-02-02T06:26:12.976Z,28.20
2018-02-02T06:27:12.107Z,28.00
2018-02-02T06:28:12.125Z,28.40
2018-02-02T06:29:12.114Z,27.10
2018-02-02T06:30:12.412Z,28.60
2018-02-02T06:31:12.105Z,28.00
2018-02-02T06:32:12.099Z,29.00
2018-02-02T06:33:12.101Z,28.10
2018-02-02T06:34:12.101Z,29.00
2018-02-02T06:35:12.088Z,30.10
2018-02-02T06:36:12.740Z,28.30
2018-02-02T06:37:12.090Z,28.30
2018-02-02T06:38:12.126Z,28.80
2018-02-02T06:39:12.082Z,29.10
2018-02-02T06:40:12.089Z,28.10
2018-02-02T06:41:12.091Z,29.50
2018-02-02T06:42:12.067Z,28.30
2018-02-02T06:43:12.087Z,29.50
2018-02-02T06:44:12.073Z,28.50
2018-02-02T06:45:12.071Z,27.90
2018-02-02T06:46:12.069Z,28.70
2018-02-02T06:47:12.069Z,28.80
2018-02-02T06:48:12.067Z,29.70
2018-02-02T06:49:12.104Z,27.50
2018-02-02T06:50:12.053Z,28.70
2018-02-02T06:51:12.974Z,28.20
2018-02-02T06:52:12.095Z,27.10
2018-02-02T06:53:12.054Z,28.70
2018-02-02T06:54:12.057Z,28.00
2018-02-02T06:55:12.055Z,27.60
2018-02-02T06:56:12.056Z,27.90
2018-02-02T06:57:12.044Z,29.00
2018-02-02T06:58:12.067Z,26.90
2018-02-02T06:59:12.149Z,29.60
2018-02-02T07:00:12.036Z,28.50
2018-02-02T07:01:12.114Z,28.50
2018-02-02T07:02:12.033Z,27.00
2018-02-02T07:03:12.035Z,27.50
2018-02-02T07:04:12.036Z,27.60
2018-02-02T07:05:12.032Z,29.60
2018-02-02T07:06:12.031Z,28.20
2018-02-02T07:07:12.031Z,27.20
2018-02-02T07:08:12.478Z,27.40
2018-02-02T07:09:12.078Z,27.10
2018-02-02T07:10:12.007Z,29.60
2018-02-02T07:11:12.058Z,28.60
2018-02-02T07:12:12.022Z,28.40
2018-02-02T07:13:12.003Z,26.60
2018-02-02T07:14:12.025Z,27.50
2018-02-02T07:15:12.007Z,28.30
2018-02-02T07:16:12.007Z,26.80
2018-02-02T07:17:12.008Z,27.50
2018-02-02T07:18:12.013Z,25.30
2018-02-02T07:19:12.001Z,28.10
2018-02-02T07:20:11.990Z,26.90
2018-02-02T07:21:11.991Z,26.30
2018-02-02T07:22:12.985Z,26.10
2018-02-02T07:23:12.191Z,27.00
2018-02-02T07:24:11.986Z,27.10
2018-02-02T07:25:12.003Z,28.20
2018-02-02T07:26:11.990Z,26.70
2018-02-02T07:27:11.989Z,27.30
2018-02-02T07:28:11.982Z,26.80
2018-02-02T07:29:11.981Z,25.20
2018-02-02T07:30:11.981Z,25.90
2018-02-02T07:31:11.970Z,25.70
2018-02-02T07:32:11.971Z,26.40
2018-02-02T07:33:11.978Z,27.20
2018-02-02T07:34:11.963Z,25.60
2018-02-02T07:35:11.956Z,23.70
2018-02-02T07:36:11.962Z,24.70
2018-02-02T07:37:11.964Z,24.80
2018-02-02T07:38:12.002Z,23.80
2018-02-02T07:39:11.960Z,25.40
2018-02-02T07:40:11.954Z,22.30
2018-02-02T07:41:11.964Z,22.40
2018-02-02T07:42:11.957Z,21.90
2018-02-02T07:43:11.979Z,22.50
2018-02-02T07:44:11.959Z,21.70
2018-02-02T07:45:11.947Z,22.70
2018-02-02T07:46:11.965Z,21.00
2018-02-02T07:47:11.967Z,20.50
2018-02-02T07:48:11.933Z,20.90
2018-02-02T07:49:11.945Z,21.10
2018-02-02T07:50:11.956Z,21.00
2018-02-02T07:51:11.957Z,20.80
2018-02-02T07:52:11.929Z,19.10
2018-02-02T07:53:12.490Z,19.00
2018-02-02T07:54:11.936Z,18.90
2018-02-02T07:55:11.971Z,18.20
2018-02-02T07:56:11.932Z,18.50
2018-02-02T07:57:11.926Z,19.40
2018-02-02T07:58:11.928Z,17.10
2018-02-02T07:59:11.916Z,16.20
2018-02-02T08:00:12.493Z,16.80
2018-02-02T08:01:11.981Z,16.40
2018-02-02T08:02:11.940Z,15.00
2018-02-02T08:03:11.919Z,15.10
2018-02-02T08:04:11.930Z,15.70
2018-02-02T08:05:11.901Z,15.20
2018-02-02T08:06:11.898Z,15.50
2018-02-02T08:07:11.904Z,15.30
2018-02-02T08:08:11.907Z,15.70
2018-02-02T08:09:11.910Z,15.70
2018-02-02T08:10:11.900Z,15.60
2018-02-02T08:11:12.180Z,16.50
2018-02-02T08:12:11.895Z,17.20
2018-02-02T08:13:11.902Z,16.60
2018-02-02T08:14:11.889Z,15.90
2018-02-02T08:15:11.913Z,16.50
2018-02-02T08:16:11.926Z,16.80
2018-02-02T08:17:11.881Z,16.40
2018-02-02T08:18:11.876Z,17.00
2018-02-02T08:19:11.874Z,17.30
2018-02-02T08:20:11.881Z,16.60
2018-02-02T08:21:11.866Z,16.70
2018-02-02T08:22:11.885Z,15.70
2018-02-02T08:23:11.877Z,16.90
2018-02-02T08:24:11.897Z,18.40
2018-02-02T08:25:11.877Z,16.30
2018-02-02T08:26:11.864Z,14.90
2018-02-02T08:27:11.868Z,16.20
2018-02-02T08:28:11.865Z,17.50
2018-02-02T08:29:11.859Z,16.80
2018-02-02T08:30:11.857Z,16.40
2018-02-02T08:31:11.863Z,16.00
2018-02-02T08:32:11.857Z,16.00
2018-02-02T08:33:11.849Z,15.00
2018-02-02T08:34:11.848Z,14.70
2018-02-02T08:35:11.912Z,14.50
2018-02-02T08:36:11.848Z,15.90
2018-02-02T08:37:11.857Z,14.30
2018-02-02T08:38:11.847Z,15.10
2018-02-02T08:39:11.843Z,14.70
2018-02-02T08:40:11.945Z,15.50
2018-02-02T08:41:11.831Z,15.30
2018-02-02T08:42:11.894Z,38.70
2018-02-02T08:43:11.858Z,28.30
2018-02-02T08:44:11.840Z,22.90
2018-02-02T08:45:11.841Z,17.30
2018-02-02T08:46:11.833Z,15.80
2018-02-02T08:47:11.824Z,16.00
2018-02-02T08:48:11.868Z,16.90
2018-02-02T08:49:11.828Z,17.20
2018-02-02T08:50:11.833Z,17.20
2018-02-02T08:51:11.834Z,17.40
2018-02-02T08:52:11.832Z,18.10
2018-02-02T08:53:11.935Z,17.90
2018-02-02T08:54:11.825Z,19.00
2018-02-02T08:55:12.494Z,19.00
2018-02-02T08:56:11.836Z,20.30
2018-02-02T08:57:11.877Z,20.30
2018-02-02T08:58:11.989Z,20.40
2018-02-02T08:59:11.816Z,20.60
2018-02-02T09:00:11.816Z,21.90
2018-02-02T09:01:11.849Z,20.60
2018-02-02T09:02:11.803Z,22.80
2018-02-02T09:03:11.875Z,21.80
2018-02-02T09:04:11.845Z,23.90
2018-02-02T09:05:11.797Z,23.00
2018-02-02T09:06:11.821Z,23.20
2018-02-02T09:07:11.806Z,23.70
2018-02-02T09:08:11.795Z,23.70
2018-02-02T09:09:11.816Z,24.30
2018-02-02T09:10:11.797Z,23.20
2018-02-02T09:11:11.802Z,24.60
2018-02-02T09:12:11.809Z,24.90
2018-02-02T09:13:11.787Z,24.70
2018-02-02T09:14:11.878Z,24.50
2018-02-02T09:15:11.784Z,23.30
2018-02-02T09:16:11.764Z,23.60
2018-02-02T09:17:11.790Z,23.90
2018-02-02T09:18:12.498Z,25.50
2018-02-02T09:19:11.888Z,22.90
2018-02-02T09:20:11.784Z,23.40
2018-02-02T09:21:11.778Z,23.40
2018-02-02T09:22:12.567Z,24.30
2018-02-02T09:23:11.770Z,24.40
2018-02-02T09:24:11.772Z,22.40
2018-02-02T09:25:11.797Z,22.70
2018-02-02T09:26:12.049Z,22.80
2018-02-02T09:27:12.506Z,22.70
2018-02-02T09:28:11.765Z,23.20
2018-02-02T09:29:11.786Z,21.20
2018-02-02T09:30:11.797Z,22.70
2018-02-02T09:31:11.752Z,21.90
2018-02-02T09:32:11.751Z,21.90
2018-02-02T09:33:11.756Z,22.40
2018-02-02T09:34:11.751Z,22.80
2018-02-02T09:35:11.752Z,23.90
2018-02-02T09:36:11.776Z,22.10
2018-02-02T09:37:11.749Z,20.60
2018-02-02T09:38:11.746Z,19.90
2018-02-02T09:39:11.743Z,23.20
2018-02-02T09:40:11.910Z,23.00
2018-02-02T09:41:11.741Z,22.30
2018-02-02T09:42:11.778Z,22.00
2018-02-02T09:43:12.502Z,22.00
2018-02-02T09:44:11.745Z,20.30
2018-02-02T09:45:11.734Z,21.00
2018-02-02T09:46:11.793Z,21.90
2018-02-02T09:47:11.750Z,20.60
2018-02-02T09:48:11.819Z,20.90
2018-02-02T09:49:11.753Z,19.60
2018-02-02T09:50:11.719Z,20.20
2018-02-02T09:51:11.969Z,21.30
2018-02-02T09:52:11.747Z,20.80
2018-02-02T09:53:11.780Z,20.50
2018-02-02T09:54:11.769Z,21.30
2018-02-02T09:55:11.752Z,21.90
2018-02-02T09:56:11.740Z,23.60
2018-02-02T09:57:11.724Z,22.30
2018-02-02T09:58:11.722Z,22.00
2018-02-02T09:59:12.739Z,22.30
2018-02-02T10:00:11.734Z,21.10
2018-02-02T10:01:11.773Z,20.60
2018-02-02T10:02:11.742Z,22.10
2018-02-02T10:03:11.715Z,20.30
2018-02-02T10:04:11.712Z,19.50
2018-02-02T10:05:11.716Z,20.30
2018-02-02T10:06:11.770Z,19.00
2018-02-02T10:07:12.045Z,20.90
2018-02-02T10:08:11.719Z,21.30
2018-02-02T10:09:11.723Z,20.50
2018-02-02T10:10:11.715Z,20.20
2018-02-02T10:11:11.722Z,20.70
2018-02-02T10:12:12.513Z,19.40
2018-02-02T10:13:11.715Z,20.50
2018-02-02T10:14:11.697Z,21.60
2018-02-02T10:15:11.707Z,19.80
2018-02-02T10:16:11.972Z,18.50
2018-02-02T10:17:12.509Z,19.00
2018-02-02T10:18:11.714Z,18.60
2018-02-02T10:19:11.743Z,18.60
2018-02-02T10:20:11.733Z,18.70
2018-02-02T10:21:11.705Z,18.40
2018-02-02T10:22:11.711Z,18.20
2018-02-02T10:23:11.695Z,17.30
2018-02-02T10:24:11.716Z,17.00
2018-02-02T10:25:11.701Z,17.40
2018-02-02T10:26:11.698Z,17.50
2018-02-02T10:27:11.707Z,17.40
2018-02-02T10:28:11.702Z,18.80
2018-02-02T10:29:11.706Z,18.30
2018-02-02T10:30:11.814Z,16.80
2018-02-02T10:31:11.712Z,16.20
2018-02-02T10:32:11.747Z,15.90
2018-02-02T10:33:11.719Z,17.40
2018-02-02T10:34:11.694Z,16.10
2018-02-02T10:35:11.688Z,16.80
2018-02-02T10:36:11.685Z,16.50
2018-02-02T10:37:11.697Z,18.10
2018-02-02T10:38:11.684Z,18.10
2018-02-02T10:39:11.691Z,19.80
2018-02-02T10:40:11.694Z,17.00
2018-02-02T10:41:11.684Z,15.90
2018-02-02T10:42:11.742Z,16.50
2018-02-02T10:43:11.817Z,14.20
2018-02-02T10:44:11.937Z,14.70
2018-02-02T10:45:11.677Z,15.50
2018-02-02T10:46:11.797Z,15.20
2018-02-02T10:47:11.677Z,14.60
2018-02-02T10:48:11.681Z,14.20
2018-02-02T10:49:11.777Z,14.00
2018-02-02T10:50:11.691Z,14.40
2018-02-02T10:51:12.519Z,12.40
2018-02-02T10:52:11.680Z,12.90
2018-02-02T10:53:11.685Z,13.80
2018-02-02T10:54:11.674Z,13.30
2018-02-02T10:55:11.660Z,13.40
2018-02-02T10:56:11.682Z,12.40
2018-02-02T10:57:12.067Z,13.30
2018-02-02T10:58:11.675Z,13.60
2018-02-02T10:59:11.660Z,14.30
2018-02-02T11:00:11.684Z,13.40
2018-02-02T11:01:11.785Z,13.60
2018-02-02T11:02:11.661Z,13.50
2018-02-02T11:03:11.695Z,14.10
2018-02-02T11:04:11.747Z,13.70
2018-02-02T11:05:11.659Z,13.20
2018-02-02T11:06:11.662Z,13.70
2018-02-02T11:07:11.686Z,14.70
2018-02-02T11:08:11.666Z,14.60
2018-02-02T11:09:11.668Z,14.20
2018-02-02T11:10:11.665Z,15.30
2018-02-02T11:11:11.668Z,15.40
2018-02-02T11:12:11.673Z,15.20
2018-02-02T11:13:11.665Z,15.80
2018-02-02T11:14:12.602Z,14.50
2018-02-02T11:15:11.669Z,15.10
2018-02-02T11:16:11.693Z,15.60
2018-02-02T11:17:12.524Z,14.70
2018-02-02T11:18:11.689Z,14.80
2018-02-02T11:19:12.054Z,16.60
2018-02-02T11:20:11.735Z,17.10
2018-02-02T11:21:11.675Z,19.00
2018-02-02T11:22:11.651Z,18.90
2018-02-02T11:23:12.530Z,17.30
2018-02-02T11:24:11.655Z,17.90
2018-02-02T11:25:11.662Z,16.60
2018-02-02T11:26:11.703Z,19.90
2018-02-02T11:27:11.659Z,17.50
2018-02-02T11:28:11.729Z,19.20
2018-02-02T11:29:11.652Z,18.30
2018-02-02T11:30:11.651Z,17.60
2018-02-02T11:31:11.676Z,17.30
2018-02-02T11:32:11.825Z,16.50
2018-02-02T11:33:11.683Z,18.10
2018-02-02T11:34:11.650Z,21.20
2018-02-02T11:35:11.649Z,19.50
2018-02-02T11:36:11.657Z,19.90
2018-02-02T11:37:11.689Z,18.90
2018-02-02T11:38:11.697Z,24.30
2018-02-02T11:39:11.650Z,20.00
2018-02-02T11:40:11.644Z,34.60
2018-02-02T11:41:11.662Z,19.50
2018-02-02T11:42:11.652Z,48.10
2018-02-02T11:43:11.741Z,22.90
2018-02-02T11:44:11.644Z,17.80
2018-02-02T11:45:11.680Z,17.90
2018-02-02T11:46:11.645Z,16.40
2018-02-02T11:47:11.677Z,20.40
2018-02-02T11:48:11.733Z,21.20
2018-02-02T11:49:11.760Z,20.10
2018-02-02T11:50:11.961Z,19.70
2018-02-02T11:51:11.679Z,17.90
2018-02-02T11:52:11.678Z,19.10
2018-02-02T11:53:11.703Z,20.40
2018-02-02T11:54:11.797Z,18.80
2018-02-02T11:55:11.645Z,18.20
2018-02-02T11:56:11.673Z,17.00
2018-02-02T11:57:11.761Z,16.70
2018-02-02T11:58:11.641Z,17.00
2018-02-02T11:59:11.651Z,16.50
2018-02-02T12:00:11.640Z,15.00
2018-02-02T12:01:11.650Z,15.60
2018-02-02T12:02:11.650Z,14.90
2018-02-02T12:03:11.661Z,15.80
2018-02-02T12:04:11.651Z,16.00
2018-02-02T12:05:11.639Z,15.20
2018-02-02T12:06:12.236Z,14.00
2018-02-02T12:07:12.533Z,14.40
2018-02-02T12:08:11.639Z,13.70
2018-02-02T12:09:11.659Z,15.50
2018-02-02T12:10:11.639Z,14.40
2018-02-02T12:11:11.638Z,15.10
2018-02-02T12:12:12.536Z,15.30
2018-02-02T12:13:11.631Z,14.10
2018-02-02T12:14:11.627Z,13.40
2018-02-02T12:15:11.702Z,14.80
2018-02-02T12:16:11.653Z,13.70
2018-02-02T12:17:11.656Z,14.10
2018-02-02T12:18:11.629Z,14.30
2018-02-02T12:19:11.633Z,13.70
2018-02-02T12:20:11.636Z,14.70
2018-02-02T12:21:11.643Z,13.80
2018-02-02T12:22:11.750Z,14.10
2018-02-02T12:23:11.644Z,14.30
2018-02-02T12:24:11.647Z,14.30
2018-02-02T12:25:11.630Z,12.80
2018-02-02T12:26:11.649Z,11.90
2018-02-02T12:27:11.637Z,13.20
2018-02-02T12:28:12.539Z,11.90
2018-02-02T12:29:11.626Z,11.80
2018-02-02T12:30:11.941Z,11.20
2018-02-02T12:31:11.632Z,11.30
2018-02-02T12:32:11.634Z,12.30
2018-02-02T12:33:11.694Z,11.70
2018-02-02T12:34:11.659Z,10.60
2018-02-02T12:35:11.634Z,11.30
2018-02-02T12:36:11.633Z,11.80
2018-02-02T12:37:11.646Z,11.10
2018-02-02T12:38:12.544Z,10.90
2018-02-02T12:39:11.696Z,11.10
2018-02-02T12:40:11.630Z,9.10
2018-02-02T12:41:11.660Z,8.40
2018-02-02T12:42:11.660Z,8.30
2018-02-02T12:43:11.638Z,8.70
2018-02-02T12:44:11.657Z,7.70
2018-02-02T12:45:11.636Z,7.30
2018-02-02T12:46:11.637Z,7.10
2018-02-02T12:47:11.645Z,6.90
2018-02-02T12:48:11.652Z,9.00
2018-02-02T12:49:11.651Z,7.60
2018-02-02T12:50:11.633Z,6.30
2018-02-02T12:51:12.574Z,6.50
2018-02-02T12:52:11.684Z,6.60
2018-02-02T12:53:11.683Z,5.70